Lynwood, Minnesota
Current Conditions -  °F | °C
As of 1:53 PM on Saturday 25 Oct 2014 (Local Time) from KHIB Reporting Station
Clear Clear  
Wind Chill: 56°   Ceiling: Unl
Heat Index: 56°   Visibility: 10mi
Dew Point: 27°   Wind: 15mph
Humidity: 33%   Direction: 290°WNW
Pressure: 29.92"   Gusts: 28mph
Location:  47.4158°N, 93.0053°W
Report Text: KHIB 251853Z AUTO 29013G24KT 10SM CLR 13/M03 A2992 RMK AO2 SLP135 T01331028
Loading
Personal Weather Stations






























Interactive Weather Map
Tropical Storm Tracking
New forecast layout! Learn more

10-Day Weather Forecast

Advertisements
Track Severe Weather on mobile